<?xml version="1.0" encoding="UTF-8" standalone="no" ?>
<gpx xmlns="http://www.topografix.com/GPX/1/1" creator="MapSource 6.16.3" version="1.1" xmlns:xsi="http://www.w3.org/2001/XMLSchema-instance" xsi:schemaLocation="http://www.topografix.com/GPX/1/1 http://www.topografix.com/GPX/1/1/gpx.xsd">

  <metadata>
    <link href="http://www.garmin.com">
      <text>Garmin International</text>
    </link>
    <time>2015-07-08T04:57:06Z</time>
    <bounds maxlat="54.317444683983922" maxlon="16.212718673050404" minlat="54.200603719800711" minlon="15.701294085010886"/>
  </metadata>

  <trk>
    <name>ACTIVE LOG 004</name>
    <extensions>
      <gpxx:TrackExtension xmlns:gpxx="http://www.garmin.com/xmlschemas/GpxExtensions/v3">
        <gpxx:DisplayColor>Green</gpxx:DisplayColor>
      </gpxx:TrackExtension>
    </extensions>
    <trkseg>
      <trkpt lat="54.201036309823394" lon="15.701404390856624">
        <ele>62.142333984375</ele>
        <time>2015-06-30T07:51:05Z</time>
      </trkpt>
      <trkpt lat="54.2009237408638" lon="15.701325517147779">
        <ele>27.0543212890625</ele>
        <time>2015-06-30T07:53:52Z</time>
      </trkpt>
      <trkpt lat="54.200899265706539" lon="15.701303640380502">
        <ele>19.36376953125</ele>
        <time>2015-06-30T07:54:39Z</time>
      </trkpt>
      <trkpt lat="54.200880154967308" lon="15.701305735856295">
        <ele>9.2698974609375</ele>
        <time>2015-06-30T07:55:57Z</time>
      </trkpt>
      <trkpt lat="54.200813602656126" lon="15.701294085010886">
        <ele>8.7891845703125</ele>
        <time>2015-06-30T07:56:00Z</time>
      </trkpt>
      <trkpt lat="54.200665075331926" lon="15.701380502432585">
        <ele>9.7506103515625</ele>
        <time>2015-06-30T07:56:08Z</time>
      </trkpt>
      <trkpt lat="54.200603719800711" lon="15.701786438003182">
        <ele>8.30859375</ele>
        <time>2015-06-30T07:56:25Z</time>
      </trkpt>
      <trkpt lat="54.20064814388752" lon="15.702076116576791">
        <ele>7.34716796875</ele>
        <time>2015-06-30T07:56:30Z</time>
      </trkpt>
      <trkpt lat="54.200913347303867" lon="15.703378999605775">
        <ele>5.9052734375</ele>
        <time>2015-06-30T07:57:19Z</time>
      </trkpt>
      <trkpt lat="54.20097604393959" lon="15.70391527377069">
        <ele>6.866455078125</ele>
        <time>2015-06-30T07:57:34Z</time>
      </trkpt>
      <trkpt lat="54.201127421110868" lon="15.704258177429438">
        <ele>6.866455078125</ele>
        <time>2015-06-30T07:57:50Z</time>
      </trkpt>
      <trkpt lat="54.201149381697178" lon="15.704253064468503">
        <ele>6.3858642578125</ele>
        <time>2015-06-30T07:57:52Z</time>
      </trkpt>
      <trkpt lat="54.201441071927547" lon="15.704196151345968">
        <ele>6.3858642578125</ele>
        <time>2015-06-30T07:58:09Z</time>
      </trkpt>
      <trkpt lat="54.201784729957581" lon="15.704550035297871">
        <ele>4.94384765625</ele>
        <time>2015-06-30T07:58:26Z</time>
      </trkpt>
      <trkpt lat="54.201953541487455" lon="15.705106090754271">
        <ele>5.424560546875</ele>
        <time>2015-06-30T07:58:38Z</time>
      </trkpt>
      <trkpt lat="54.202207429334521" lon="15.705529879778624">
        <ele>4.4632568359375</ele>
        <time>2015-06-30T07:58:53Z</time>
      </trkpt>
      <trkpt lat="54.202283285558224" lon="15.705532310530543">
        <ele>3.021240234375</ele>
        <time>2015-06-30T07:59:10Z</time>
      </trkpt>
      <trkpt lat="54.202586878091097" lon="15.705558462068439">
        <ele>1.579345703125</ele>
        <time>2015-06-30T07:59:47Z</time>
      </trkpt>
      <trkpt lat="54.202685030177236" lon="15.705510014668107">
        <ele>0.6180419921875</ele>
        <time>2015-06-30T08:00:02Z</time>
      </trkpt>
      <trkpt lat="54.202882843092084" lon="15.705514373257756">
        <ele>3.021240234375</ele>
        <time>2015-06-30T08:00:32Z</time>
      </trkpt>
      <trkpt lat="54.202925506979227" lon="15.705589978024364">
        <ele>2.5406494140625</ele>
        <time>2015-06-30T08:00:45Z</time>
      </trkpt>
      <trkpt lat="54.203344350680709" lon="15.706209316849709">
        <ele>2.06005859375</ele>
        <time>2015-06-30T08:01:15Z</time>
      </trkpt>
      <trkpt lat="54.204072402790189" lon="15.707457633689046">
        <ele>-0.3433837890625</ele>
        <time>2015-06-30T08:02:06Z</time>
      </trkpt>
      <trkpt lat="54.205595562234521" lon="15.71024059318006">
        <ele>-0.8240966796875</ele>
        <time>2015-06-30T08:03:52Z</time>
      </trkpt>
      <trkpt lat="54.205981967970729" lon="15.71093637496233">
        <ele>1.0986328125</ele>
        <time>2015-06-30T08:04:22Z</time>
      </trkpt>
      <trkpt lat="54.206342976540327" lon="15.713383723050356">
        <ele>6.3858642578125</ele>
        <time>2015-06-30T08:05:26Z</time>
      </trkpt>
      <trkpt lat="54.206401649862528" lon="15.716814436018467">
        <ele>6.3858642578125</ele>
        <time>2015-06-30T08:06:34Z</time>
      </trkpt>
      <trkpt lat="54.206497119739652" lon="15.717276195064187">
        <ele>5.424560546875</ele>
        <time>2015-06-30T08:06:44Z</time>
      </trkpt>
      <trkpt lat="54.206764837726951" lon="15.71714635938406">
        <ele>6.866455078125</ele>
        <time>2015-06-30T08:06:56Z</time>
      </trkpt>
      <trkpt lat="54.208252038806677" lon="15.716453427448869">
        <ele>12.15380859375</ele>
        <time>2015-06-30T08:07:39Z</time>
      </trkpt>
      <trkpt lat="54.208427639678121" lon="15.717305783182383">
        <ele>10.231201171875</ele>
        <time>2015-06-30T08:07:57Z</time>
      </trkpt>
      <trkpt lat="54.210750265046954" lon="15.729329539462924">
        <ele>16.479736328125</ele>
        <time>2015-06-30T08:11:08Z</time>
      </trkpt>
      <trkpt lat="54.21087272465229" lon="15.729749472811818">
        <ele>13.5958251953125</ele>
        <time>2015-06-30T08:11:14Z</time>
      </trkpt>
      <trkpt lat="54.210899295285344" lon="15.729896994307637">
        <ele>13.1151123046875</ele>
        <time>2015-06-30T08:11:16Z</time>
      </trkpt>
      <trkpt lat="54.211120493710041" lon="15.731033412739635">
        <ele>13.1151123046875</ele>
        <time>2015-06-30T08:11:30Z</time>
      </trkpt>
      <trkpt lat="54.211449734866619" lon="15.732937781140208">
        <ele>12.15380859375</ele>
        <time>2015-06-30T08:11:55Z</time>
      </trkpt>
      <trkpt lat="54.211705047637224" lon="15.733999516814947">
        <ele>11.6732177734375</ele>
        <time>2015-06-30T08:12:17Z</time>
      </trkpt>
      <trkpt lat="54.214030690491199" lon="15.742996735498309">
        <ele>8.30859375</ele>
        <time>2015-06-30T08:14:24Z</time>
      </trkpt>
      <trkpt lat="54.214208386838436" lon="15.743822772055864">
        <ele>8.7891845703125</ele>
        <time>2015-06-30T08:14:36Z</time>
      </trkpt>
      <trkpt lat="54.214191287755966" lon="15.743931569159031">
        <ele>8.7891845703125</ele>
        <time>2015-06-30T08:14:38Z</time>
      </trkpt>
      <trkpt lat="54.214450288563967" lon="15.745186256244779">
        <ele>10.231201171875</ele>
        <time>2015-06-30T08:14:56Z</time>
      </trkpt>
      <trkpt lat="54.214742984622717" lon="15.746401883661747">
        <ele>7.827880859375</ele>
        <time>2015-06-30T08:15:16Z</time>
      </trkpt>
      <trkpt lat="54.215114722028375" lon="15.748729705810547">
        <ele>4.4632568359375</ele>
        <time>2015-06-30T08:16:07Z</time>
      </trkpt>
      <trkpt lat="54.215108267962933" lon="15.749138072133064">
        <ele>5.424560546875</ele>
        <time>2015-06-30T08:16:15Z</time>
      </trkpt>
      <trkpt lat="54.215153446421027" lon="15.749272769317031">
        <ele>5.9052734375</ele>
        <time>2015-06-30T08:16:18Z</time>
      </trkpt>
      <trkpt lat="54.215417224913836" lon="15.749994618818164">
        <ele>8.30859375</ele>
        <time>2015-06-30T08:16:33Z</time>
      </trkpt>
      <trkpt lat="54.215779155492783" lon="15.751045206561685">
        <ele>7.34716796875</ele>
        <time>2015-06-30T08:16:54Z</time>
      </trkpt>
      <trkpt lat="54.215835062786937" lon="15.751123409718275">
        <ele>8.30859375</ele>
        <time>2015-06-30T08:16:58Z</time>
      </trkpt>
      <trkpt lat="54.216059446334839" lon="15.75193427503109">
        <ele>9.7506103515625</ele>
        <time>2015-06-30T08:17:15Z</time>
      </trkpt>
      <trkpt lat="54.21645381487906" lon="15.753674022853374">
        <ele>12.15380859375</ele>
        <time>2015-06-30T08:17:57Z</time>
      </trkpt>
      <trkpt lat="54.216670822352171" lon="15.754593517631292">
        <ele>11.6732177734375</ele>
        <time>2015-06-30T08:18:17Z</time>
      </trkpt>
      <trkpt lat="54.216758664697409" lon="15.755064245313406">
        <ele>11.6732177734375</ele>
        <time>2015-06-30T08:18:33Z</time>
      </trkpt>
      <trkpt lat="54.216607203707099" lon="15.755136581137776">
        <ele>10.7117919921875</ele>
        <time>2015-06-30T08:18:56Z</time>
      </trkpt>
      <trkpt lat="54.216486001387239" lon="15.755031639710069">
        <ele>10.231201171875</ele>
        <time>2015-06-30T08:19:03Z</time>
      </trkpt>
      <trkpt lat="54.216363709419966" lon="15.756251960992813">
        <ele>11.6732177734375</ele>
        <time>2015-06-30T08:19:21Z</time>
      </trkpt>
      <trkpt lat="54.216223061084747" lon="15.756919328123331">
        <ele>11.1925048828125</ele>
        <time>2015-06-30T08:19:34Z</time>
      </trkpt>
      <trkpt lat="54.216296151280403" lon="15.757418051362038">
        <ele>13.1151123046875</ele>
        <time>2015-06-30T08:20:07Z</time>
      </trkpt>
      <trkpt lat="54.216469908133149" lon="15.757925156503916">
        <ele>18.883056640625</ele>
        <time>2015-06-30T08:20:26Z</time>
      </trkpt>
      <trkpt lat="54.216878106817603" lon="15.759435910731554">
        <ele>16.96044921875</ele>
        <time>2015-06-30T08:20:56Z</time>
      </trkpt>
      <trkpt lat="54.217138616368175" lon="15.761481681838632">
        <ele>18.40234375</ele>
        <time>2015-06-30T08:21:21Z</time>
      </trkpt>
      <trkpt lat="54.217768600210547" lon="15.764771159738302">
        <ele>12.15380859375</ele>
        <time>2015-06-30T08:22:11Z</time>
      </trkpt>
      <trkpt lat="54.217614037916064" lon="15.766082676127553">
        <ele>13.1151123046875</ele>
        <time>2015-06-30T08:22:32Z</time>
      </trkpt>
      <trkpt lat="54.217010624706745" lon="15.770446630194783">
        <ele>16.96044921875</ele>
        <time>2015-06-30T08:23:54Z</time>
      </trkpt>
      <trkpt lat="54.217053707689047" lon="15.771288760006428">
        <ele>20.324951171875</ele>
        <time>2015-06-30T08:24:19Z</time>
      </trkpt>
      <trkpt lat="54.217152614146471" lon="15.773568134754896">
        <ele>21.286376953125</ele>
        <time>2015-06-30T08:25:20Z</time>
      </trkpt>
      <trkpt lat="54.21714280731976" lon="15.774177834391594">
        <ele>20.324951171875</ele>
        <time>2015-06-30T08:26:21Z</time>
      </trkpt>
      <trkpt lat="54.217118164524436" lon="15.774845201522112">
        <ele>20.324951171875</ele>
        <time>2015-06-30T08:26:39Z</time>
      </trkpt>
      <trkpt lat="54.217063765972853" lon="15.77503765001893">
        <ele>20.324951171875</ele>
        <time>2015-06-30T08:26:41Z</time>
      </trkpt>
      <trkpt lat="54.217107687145472" lon="15.775710297748446">
        <ele>20.324951171875</ele>
        <time>2015-06-30T08:26:51Z</time>
      </trkpt>
      <trkpt lat="54.217096623033285" lon="15.775757906958461">
        <ele>20.324951171875</ele>
        <time>2015-06-30T08:26:53Z</time>
      </trkpt>
      <trkpt lat="54.217377081513405" lon="15.776557540521026">
        <ele>20.324951171875</ele>
        <time>2015-06-30T08:27:10Z</time>
      </trkpt>
      <trkpt lat="54.217553855851293" lon="15.777429509907961">
        <ele>20.324951171875</ele>
        <time>2015-06-30T08:27:21Z</time>
      </trkpt>
      <trkpt lat="54.217607080936432" lon="15.778099056333303">
        <ele>20.324951171875</ele>
        <time>2015-06-30T08:27:31Z</time>
      </trkpt>
      <trkpt lat="54.217681931331754" lon="15.778373647481203">
        <ele>20.324951171875</ele>
        <time>2015-06-30T08:27:34Z</time>
      </trkpt>
      <trkpt lat="54.217703305184841" lon="15.778533406555653">
        <ele>20.324951171875</ele>
        <time>2015-06-30T08:27:38Z</time>
      </trkpt>
      <trkpt lat="54.218325410038233" lon="15.78150755725801">
        <ele>14.076416015625</ele>
        <time>2015-06-30T08:28:06Z</time>
      </trkpt>
      <trkpt lat="54.218389112502337" lon="15.781694641336799">
        <ele>13.1151123046875</ele>
        <time>2015-06-30T08:28:09Z</time>
      </trkpt>
      <trkpt lat="54.218880292028189" lon="15.78236754052341">
        <ele>11.1925048828125</ele>
        <time>2015-06-30T08:28:27Z</time>
      </trkpt>
      <trkpt lat="54.220626493915915" lon="15.782838519662619">
        <ele>15.9990234375</ele>
        <time>2015-06-30T08:29:26Z</time>
      </trkpt>
      <trkpt lat="54.220631271600723" lon="15.782958380877972">
        <ele>15.9990234375</ele>
        <time>2015-06-30T08:29:30Z</time>
      </trkpt>
      <trkpt lat="54.220623895525932" lon="15.783096347004175">
        <ele>15.9990234375</ele>
        <time>2015-06-30T08:29:33Z</time>
      </trkpt>
      <trkpt lat="54.221742460504174" lon="15.786029510200024">
        <ele>14.076416015625</ele>
        <time>2015-06-30T08:30:30Z</time>
      </trkpt>
      <trkpt lat="54.222407229244709" lon="15.787301380187273">
        <ele>13.1151123046875</ele>
        <time>2015-06-30T08:30:53Z</time>
      </trkpt>
      <trkpt lat="54.222415443509817" lon="15.787504222244024">
        <ele>13.5958251953125</ele>
        <time>2015-06-30T08:30:57Z</time>
      </trkpt>
      <trkpt lat="54.222500268369913" lon="15.787823740392923">
        <ele>13.5958251953125</ele>
        <time>2015-06-30T08:31:03Z</time>
      </trkpt>
      <trkpt lat="54.223364861682057" lon="15.788651034235954">
        <ele>13.5958251953125</ele>
        <time>2015-06-30T08:31:15Z</time>
      </trkpt>
      <trkpt lat="54.223551442846656" lon="15.789228715002537">
        <ele>16.479736328125</ele>
        <time>2015-06-30T08:31:32Z</time>
      </trkpt>
      <trkpt lat="54.223667616024613" lon="15.789251765236259">
        <ele>16.479736328125</ele>
        <time>2015-06-30T08:31:35Z</time>
      </trkpt>
      <trkpt lat="54.223842546343803" lon="15.78943558037281">
        <ele>16.479736328125</ele>
        <time>2015-06-30T08:31:47Z</time>
      </trkpt>
      <trkpt lat="54.223813377320766" lon="15.789315719157457">
        <ele>17.441162109375</ele>
        <time>2015-06-30T08:32:13Z</time>
      </trkpt>
      <trkpt lat="54.22446146607399" lon="15.790892690420151">
        <ele>16.96044921875</ele>
        <time>2015-06-30T08:32:46Z</time>
      </trkpt>
      <trkpt lat="54.22475122846663" lon="15.79153373837471">
        <ele>16.479736328125</ele>
        <time>2015-06-30T08:32:55Z</time>
      </trkpt>
      <trkpt lat="54.22651126049459" lon="15.795416822656989">
        <ele>14.076416015625</ele>
        <time>2015-06-30T08:34:03Z</time>
      </trkpt>
      <trkpt lat="54.226986346766353" lon="15.796139761805534">
        <ele>13.5958251953125</ele>
        <time>2015-06-30T08:34:23Z</time>
      </trkpt>
      <trkpt lat="54.227237217128277" lon="15.796807380393147">
        <ele>9.7506103515625</ele>
        <time>2015-06-30T08:34:37Z</time>
      </trkpt>
      <trkpt lat="54.227209221571684" lon="15.796999409794807">
        <ele>11.1925048828125</ele>
        <time>2015-06-30T08:34:39Z</time>
      </trkpt>
      <trkpt lat="54.227308630943298" lon="15.798004819080234">
        <ele>12.15380859375</ele>
        <time>2015-06-30T08:34:54Z</time>
      </trkpt>
      <trkpt lat="54.227490937337279" lon="15.798948453739285">
        <ele>3.501953125</ele>
        <time>2015-06-30T08:35:13Z</time>
      </trkpt>
      <trkpt lat="54.227600572630763" lon="15.799788320437074">
        <ele>2.5406494140625</ele>
        <time>2015-06-30T08:35:32Z</time>
      </trkpt>
      <trkpt lat="54.227652875706553" lon="15.801138142123818">
        <ele>3.021240234375</ele>
        <time>2015-06-30T08:35:55Z</time>
      </trkpt>
      <trkpt lat="54.22753544524312" lon="15.802471535280347">
        <ele>2.5406494140625</ele>
        <time>2015-06-30T08:36:15Z</time>
      </trkpt>
      <trkpt lat="54.227310391142964" lon="15.803785817697644">
        <ele>2.06005859375</ele>
        <time>2015-06-30T08:36:37Z</time>
      </trkpt>
      <trkpt lat="54.227437796071172" lon="15.803629411384463">
        <ele>15.5184326171875</ele>
        <time>2015-06-30T08:39:12Z</time>
      </trkpt>
      <trkpt lat="54.227335369214416" lon="15.804176079109311">
        <ele>13.5958251953125</ele>
        <time>2015-06-30T08:39:28Z</time>
      </trkpt>
      <trkpt lat="54.226885344833136" lon="15.807754313573241">
        <ele>10.7117919921875</ele>
        <time>2015-06-30T08:40:21Z</time>
      </trkpt>
      <trkpt lat="54.226960362866521" lon="15.808732230216265">
        <ele>9.7506103515625</ele>
        <time>2015-06-30T08:40:33Z</time>
      </trkpt>
      <trkpt lat="54.228150760754943" lon="15.812144502997398">
        <ele>7.827880859375</ele>
        <time>2015-06-30T08:41:21Z</time>
      </trkpt>
      <trkpt lat="54.22872425056994" lon="15.813697166740894">
        <ele>4.94384765625</ele>
        <time>2015-06-30T08:41:43Z</time>
      </trkpt>
      <trkpt lat="54.229436544701457" lon="15.81566171720624">
        <ele>3.021240234375</ele>
        <time>2015-06-30T08:42:10Z</time>
      </trkpt>
      <trkpt lat="54.230007184669375" lon="15.817234497517347">
        <ele>2.5406494140625</ele>
        <time>2015-06-30T08:42:33Z</time>
      </trkpt>
      <trkpt lat="54.231109656393528" lon="15.819703973829746">
        <ele>0.6180419921875</ele>
        <time>2015-06-30T08:43:15Z</time>
      </trkpt>
      <trkpt lat="54.23453944735229" lon="15.823301821947098">
        <ele>-0.3433837890625</ele>
        <time>2015-06-30T08:45:16Z</time>
      </trkpt>
      <trkpt lat="54.234608598053455" lon="15.823597284033895">
        <ele>-0.3433837890625</ele>
        <time>2015-06-30T08:45:23Z</time>
      </trkpt>
      <trkpt lat="54.234746647998691" lon="15.824571847915649">
        <ele>-0.3433837890625</ele>
        <time>2015-06-30T08:45:50Z</time>
      </trkpt>
      <trkpt lat="54.235210167244077" lon="15.827010814100504">
        <ele>-0.3433837890625</ele>
        <time>2015-06-30T08:46:41Z</time>
      </trkpt>
      <trkpt lat="54.235283844172955" lon="15.830994984135032">
        <ele>-0.8240966796875</ele>
        <time>2015-06-30T08:47:54Z</time>
      </trkpt>
      <trkpt lat="54.235099442303181" lon="15.833535706624389">
        <ele>-0.8240966796875</ele>
        <time>2015-06-30T08:48:43Z</time>
      </trkpt>
      <trkpt lat="54.236073838546872" lon="15.835822708904743">
        <ele>-1.7852783203125</ele>
        <time>2015-06-30T08:49:32Z</time>
      </trkpt>
      <trkpt lat="54.235896812751889" lon="15.836221687495708">
        <ele>-2.2659912109375</ele>
        <time>2015-06-30T08:49:40Z</time>
      </trkpt>
      <trkpt lat="54.235759936273098" lon="15.836663581430912">
        <ele>-2.7467041015625</ele>
        <time>2015-06-30T08:49:49Z</time>
      </trkpt>
      <trkpt lat="54.235636470839381" lon="15.837333295494318">
        <ele>-0.8240966796875</ele>
        <time>2015-06-30T08:50:04Z</time>
      </trkpt>
      <trkpt lat="54.23718879930675" lon="15.841755587607622">
        <ele>3.501953125</ele>
        <time>2015-06-30T08:52:13Z</time>
      </trkpt>
      <trkpt lat="54.237594651058316" lon="15.842065801844001">
        <ele>4.4632568359375</ele>
        <time>2015-06-30T08:52:23Z</time>
      </trkpt>
      <trkpt lat="54.237833954393864" lon="15.842497972771525">
        <ele>-0.3433837890625</ele>
        <time>2015-06-30T08:52:37Z</time>
      </trkpt>
      <trkpt lat="54.237858848646283" lon="15.844079637899995">
        <ele>-0.8240966796875</ele>
        <time>2015-06-30T08:53:14Z</time>
      </trkpt>
      <trkpt lat="54.237877288833261" lon="15.844084415584803">
        <ele>-0.8240966796875</ele>
        <time>2015-06-30T08:53:16Z</time>
      </trkpt>
      <trkpt lat="54.238717658445239" lon="15.844780784100294">
        <ele>0.137451171875</ele>
        <time>2015-06-30T08:53:26Z</time>
      </trkpt>
      <trkpt lat="54.238442899659276" lon="15.845033582299948">
        <ele>1.0986328125</ele>
        <time>2015-06-30T08:53:34Z</time>
      </trkpt>
      <trkpt lat="54.239144800230861" lon="15.847479421645403">
        <ele>3.021240234375</ele>
        <time>2015-06-30T08:54:30Z</time>
      </trkpt>
      <trkpt lat="54.239141531288624" lon="15.847664745524526">
        <ele>1.579345703125</ele>
        <time>2015-06-30T08:54:36Z</time>
      </trkpt>
      <trkpt lat="54.239186709746718" lon="15.847701290622354">
        <ele>0.137451171875</ele>
        <time>2015-06-30T08:54:39Z</time>
      </trkpt>
      <trkpt lat="54.239244377240539" lon="15.848063053563237">
        <ele>-2.7467041015625</ele>
        <time>2015-06-30T08:54:49Z</time>
      </trkpt>
      <trkpt lat="54.239449230954051" lon="15.848762188106775">
        <ele>-5.14990234375</ele>
        <time>2015-06-30T08:55:09Z</time>
      </trkpt>
      <trkpt lat="54.239442106336355" lon="15.850130869075656">
        <ele>-0.8240966796875</ele>
        <time>2015-06-30T08:55:42Z</time>
      </trkpt>
      <trkpt lat="54.239522656425834" lon="15.850221225991845">
        <ele>-1.3046875</ele>
        <time>2015-06-30T08:55:55Z</time>
      </trkpt>
      <trkpt lat="54.2396539170295" lon="15.850327843800187">
        <ele>1.0986328125</ele>
        <time>2015-06-30T08:56:26Z</time>
      </trkpt>
      <trkpt lat="54.239658107981086" lon="15.850446531549096">
        <ele>1.579345703125</ele>
        <time>2015-06-30T08:56:31Z</time>
      </trkpt>
      <trkpt lat="54.23973941244185" lon="15.850715423002839">
        <ele>4.94384765625</ele>
        <time>2015-06-30T08:56:46Z</time>
      </trkpt>
      <trkpt lat="54.239846784621477" lon="15.8512216899544">
        <ele>2.5406494140625</ele>
        <time>2015-06-30T08:57:04Z</time>
      </trkpt>
      <trkpt lat="54.239949127659202" lon="15.851730890572071">
        <ele>4.94384765625</ele>
        <time>2015-06-30T08:57:22Z</time>
      </trkpt>
      <trkpt lat="54.240083657205105" lon="15.852505210787058">
        <ele>1.0986328125</ele>
        <time>2015-06-30T08:57:46Z</time>
      </trkpt>
      <trkpt lat="54.24009907990694" lon="15.852661617100239">
        <ele>1.0986328125</ele>
        <time>2015-06-30T08:57:50Z</time>
      </trkpt>
      <trkpt lat="54.24016403965652" lon="15.852970909327269">
        <ele>2.5406494140625</ele>
        <time>2015-06-30T08:57:58Z</time>
      </trkpt>
      <trkpt lat="54.240168314427137" lon="15.853048525750637">
        <ele>2.06005859375</ele>
        <time>2015-06-30T08:58:00Z</time>
      </trkpt>
      <trkpt lat="54.239835133776069" lon="15.854046726599336">
        <ele>2.06005859375</ele>
        <time>2015-06-30T08:58:22Z</time>
      </trkpt>
      <trkpt lat="54.239522572606802" lon="15.855067390948534">
        <ele>3.501953125</ele>
        <time>2015-06-30T08:58:47Z</time>
      </trkpt>
      <trkpt lat="54.239315623417497" lon="15.856072129681706">
        <ele>4.4632568359375</ele>
        <time>2015-06-30T08:59:18Z</time>
      </trkpt>
      <trkpt lat="54.239391814917326" lon="15.856594825163484">
        <ele>2.5406494140625</ele>
        <time>2015-06-30T08:59:31Z</time>
      </trkpt>
      <trkpt lat="54.239486614242196" lon="15.857650609686971">
        <ele>4.94384765625</ele>
        <time>2015-06-30T08:59:50Z</time>
      </trkpt>
      <trkpt lat="54.239658191800117" lon="15.858841007575393">
        <ele>3.982666015625</ele>
        <time>2015-06-30T09:00:14Z</time>
      </trkpt>
      <trkpt lat="54.239721642807126" lon="15.859165471047163">
        <ele>1.579345703125</ele>
        <time>2015-06-30T09:00:21Z</time>
      </trkpt>
      <trkpt lat="54.240188933908939" lon="15.86353219114244">
        <ele>1.0986328125</ele>
        <time>2015-06-30T09:01:41Z</time>
      </trkpt>
      <trkpt lat="54.240271244198084" lon="15.864453194662929">
        <ele>2.06005859375</ele>
        <time>2015-06-30T09:02:02Z</time>
      </trkpt>
      <trkpt lat="54.240417676046491" lon="15.865491544827819">
        <ele>2.5406494140625</ele>
        <time>2015-06-30T09:02:25Z</time>
      </trkpt>
      <trkpt lat="54.2404689732939" lon="15.865963278338313">
        <ele>4.94384765625</ele>
        <time>2015-06-30T09:02:43Z</time>
      </trkpt>
      <trkpt lat="54.240478193387389" lon="15.865982891991735">
        <ele>5.9052734375</ele>
        <time>2015-06-30T09:02:49Z</time>
      </trkpt>
      <trkpt lat="54.240506021305919" lon="15.86609311401844">
        <ele>7.34716796875</ele>
        <time>2015-06-30T09:03:05Z</time>
      </trkpt>
      <trkpt lat="54.240513648837805" lon="15.866463426500559">
        <ele>6.3858642578125</ele>
        <time>2015-06-30T09:05:30Z</time>
      </trkpt>
      <trkpt lat="54.24057399854064" lon="15.867068851366639">
        <ele>6.866455078125</ele>
        <time>2015-06-30T09:05:48Z</time>
      </trkpt>
      <trkpt lat="54.240629822015762" lon="15.867712078616023">
        <ele>5.9052734375</ele>
        <time>2015-06-30T09:06:06Z</time>
      </trkpt>
      <trkpt lat="54.240731494501233" lon="15.86894472129643">
        <ele>4.4632568359375</ele>
        <time>2015-06-30T09:06:30Z</time>
      </trkpt>
      <trkpt lat="54.240918578580022" lon="15.870684720575809">
        <ele>3.982666015625</ele>
        <time>2015-06-30T09:07:03Z</time>
      </trkpt>
      <trkpt lat="54.241013042628765" lon="15.871498435735703">
        <ele>4.94384765625</ele>
        <time>2015-06-30T09:07:21Z</time>
      </trkpt>
      <trkpt lat="54.241514196619391" lon="15.876362957060337">
        <ele>4.94384765625</ele>
        <time>2015-06-30T09:08:59Z</time>
      </trkpt>
      <trkpt lat="54.241642775014043" lon="15.877460818737745">
        <ele>4.4632568359375</ele>
        <time>2015-06-30T09:09:14Z</time>
      </trkpt>
      <trkpt lat="54.241861458867788" lon="15.879738098010421">
        <ele>3.501953125</ele>
        <time>2015-06-30T09:09:46Z</time>
      </trkpt>
      <trkpt lat="54.241893980652094" lon="15.879977904260159">
        <ele>3.982666015625</ele>
        <time>2015-06-30T09:09:50Z</time>
      </trkpt>
      <trkpt lat="54.241899680346251" lon="15.880205053836107">
        <ele>3.501953125</ele>
        <time>2015-06-30T09:09:54Z</time>
      </trkpt>
      <trkpt lat="54.242224646732211" lon="15.88315213099122">
        <ele>3.982666015625</ele>
        <time>2015-06-30T09:10:42Z</time>
      </trkpt>
      <trkpt lat="54.242333862930536" lon="15.88427790440619">
        <ele>3.982666015625</ele>
        <time>2015-06-30T09:10:59Z</time>
      </trkpt>
      <trkpt lat="54.24243126064539" lon="15.885679107159376">
        <ele>4.4632568359375</ele>
        <time>2015-06-30T09:11:18Z</time>
      </trkpt>
      <trkpt lat="54.242402678355575" lon="15.886770682409406">
        <ele>3.982666015625</ele>
        <time>2015-06-30T09:11:33Z</time>
      </trkpt>
      <trkpt lat="54.242434613406658" lon="15.887203020974994">
        <ele>3.982666015625</ele>
        <time>2015-06-30T09:11:39Z</time>
      </trkpt>
      <trkpt lat="54.242649860680103" lon="15.888749901205301">
        <ele>3.982666015625</ele>
        <time>2015-06-30T09:12:03Z</time>
      </trkpt>
      <trkpt lat="54.242698894813657" lon="15.888977469876409">
        <ele>5.424560546875</ele>
        <time>2015-06-30T09:12:15Z</time>
      </trkpt>
      <trkpt lat="54.242699397727847" lon="15.889010578393936">
        <ele>6.3858642578125</ele>
        <time>2015-06-30T09:12:48Z</time>
      </trkpt>
      <trkpt lat="54.242515582591295" lon="15.890302313491702">
        <ele>3.021240234375</ele>
        <time>2015-06-30T09:13:16Z</time>
      </trkpt>
      <trkpt lat="54.242395972833037" lon="15.891113178804517">
        <ele>3.021240234375</ele>
        <time>2015-06-30T09:13:27Z</time>
      </trkpt>
      <trkpt lat="54.24232916906476" lon="15.892277006059885">
        <ele>2.5406494140625</ele>
        <time>2015-06-30T09:13:43Z</time>
      </trkpt>
      <trkpt lat="54.243053365498781" lon="15.894327890127897">
        <ele>1.0986328125</ele>
        <time>2015-06-30T09:14:15Z</time>
      </trkpt>
      <trkpt lat="54.243096197023988" lon="15.894538443535566">
        <ele>0.6180419921875</ele>
        <time>2015-06-30T09:14:28Z</time>
      </trkpt>
      <trkpt lat="54.243101729080081" lon="15.894567025825381">
        <ele>6.3858642578125</ele>
        <time>2015-06-30T09:15:33Z</time>
      </trkpt>
      <trkpt lat="54.243190241977572" lon="15.894833486527205">
        <ele>4.4632568359375</ele>
        <time>2015-06-30T09:15:51Z</time>
      </trkpt>
      <trkpt lat="54.243538677692413" lon="15.896445577964187">
        <ele>3.982666015625</ele>
        <time>2015-06-30T09:16:21Z</time>
      </trkpt>
      <trkpt lat="54.243356203660369" lon="15.897551737725735">
        <ele>5.424560546875</ele>
        <time>2015-06-30T09:16:39Z</time>
      </trkpt>
      <trkpt lat="54.243494253605604" lon="15.899832705035806">
        <ele>5.9052734375</ele>
        <time>2015-06-30T09:17:09Z</time>
      </trkpt>
      <trkpt lat="54.244381645694375" lon="15.90431509539485">
        <ele>4.94384765625</ele>
        <time>2015-06-30T09:18:04Z</time>
      </trkpt>
      <trkpt lat="54.245502389967442" lon="15.909527214244008">
        <ele>4.4632568359375</ele>
        <time>2015-06-30T09:19:21Z</time>
      </trkpt>
      <trkpt lat="54.245843030512333" lon="15.910977786406875">
        <ele>7.34716796875</ele>
        <time>2015-06-30T09:19:58Z</time>
      </trkpt>
      <trkpt lat="54.246106473729014" lon="15.912651652470231">
        <ele>4.4632568359375</ele>
        <time>2015-06-30T09:20:34Z</time>
      </trkpt>
      <trkpt lat="54.246237063780427" lon="15.915128840133548">
        <ele>4.4632568359375</ele>
        <time>2015-06-30T09:21:25Z</time>
      </trkpt>
      <trkpt lat="54.246237901970744" lon="15.915132611989975">
        <ele>4.4632568359375</ele>
        <time>2015-06-30T09:21:26Z</time>
      </trkpt>
      <trkpt lat="54.24626313149929" lon="15.915251718834043">
        <ele>3.982666015625</ele>
        <time>2015-06-30T09:21:30Z</time>
      </trkpt>
      <trkpt lat="54.245761139318347" lon="15.92338434420526">
        <ele>3.021240234375</ele>
        <time>2015-06-30T09:24:21Z</time>
      </trkpt>
      <trkpt lat="54.24566600471735" lon="15.925003979355097">
        <ele>4.4632568359375</ele>
        <time>2015-06-30T09:24:52Z</time>
      </trkpt>
      <trkpt lat="54.245434664189816" lon="15.928384065628052">
        <ele>4.94384765625</ele>
        <time>2015-06-30T09:25:58Z</time>
      </trkpt>
      <trkpt lat="54.246554151177406" lon="15.932620698586106">
        <ele>6.3858642578125</ele>
        <time>2015-06-30T09:27:09Z</time>
      </trkpt>
      <trkpt lat="54.24682647921145" lon="15.934254499152303">
        <ele>4.4632568359375</ele>
        <time>2015-06-30T09:27:27Z</time>
      </trkpt>
      <trkpt lat="54.247004091739655" lon="15.937899956479669">
        <ele>3.501953125</ele>
        <time>2015-06-30T09:28:15Z</time>
      </trkpt>
      <trkpt lat="54.247530810534954" lon="15.942597175016999">
        <ele>1.0986328125</ele>
        <time>2015-06-30T09:29:27Z</time>
      </trkpt>
      <trkpt lat="54.247348085045815" lon="15.943797128275037">
        <ele>0.6180419921875</ele>
        <time>2015-06-30T09:29:49Z</time>
      </trkpt>
      <trkpt lat="54.247639523819089" lon="15.946171386167407">
        <ele>0.6180419921875</ele>
        <time>2015-06-30T09:30:21Z</time>
      </trkpt>
      <trkpt lat="54.248609226197004" lon="15.950229903683066">
        <ele>0.6180419921875</ele>
        <time>2015-06-30T09:31:27Z</time>
      </trkpt>
      <trkpt lat="54.248719783499837" lon="15.951391719281673">
        <ele>2.06005859375</ele>
        <time>2015-06-30T09:31:46Z</time>
      </trkpt>
      <trkpt lat="54.24878885038197" lon="15.951815005391836">
        <ele>2.06005859375</ele>
        <time>2015-06-30T09:31:54Z</time>
      </trkpt>
      <trkpt lat="54.248847523704171" lon="15.955044468864799">
        <ele>3.982666015625</ele>
        <time>2015-06-30T09:32:45Z</time>
      </trkpt>
      <trkpt lat="54.248943831771612" lon="15.957137765362859">
        <ele>3.501953125</ele>
        <time>2015-06-30T09:33:15Z</time>
      </trkpt>
      <trkpt lat="54.248935701325536" lon="15.957506066188216">
        <ele>3.501953125</ele>
        <time>2015-06-30T09:33:20Z</time>
      </trkpt>
      <trkpt lat="54.249021196737885" lon="15.961498869583011">
        <ele>6.3858642578125</ele>
        <time>2015-06-30T09:34:22Z</time>
      </trkpt>
      <trkpt lat="54.248481569811702" lon="15.96287040039897">
        <ele>4.94384765625</ele>
        <time>2015-06-30T09:34:47Z</time>
      </trkpt>
      <trkpt lat="54.247368536889553" lon="15.965956449508667">
        <ele>3.501953125</ele>
        <time>2015-06-30T09:35:39Z</time>
      </trkpt>
      <trkpt lat="54.247378092259169" lon="15.965902553871274">
        <ele>3.501953125</ele>
        <time>2015-06-30T09:35:47Z</time>
      </trkpt>
      <trkpt lat="54.24739477224648" lon="15.965799707919359">
        <ele>2.5406494140625</ele>
        <time>2015-06-30T09:35:51Z</time>
      </trkpt>
      <trkpt lat="54.247587472200394" lon="15.965004684403539">
        <ele>3.501953125</ele>
        <time>2015-06-30T09:36:15Z</time>
      </trkpt>
      <trkpt lat="54.247636841610074" lon="15.965022789314389">
        <ele>3.021240234375</ele>
        <time>2015-06-30T09:37:16Z</time>
      </trkpt>
      <trkpt lat="54.247720493003726" lon="15.965242898091674">
        <ele>5.9052734375</ele>
        <time>2015-06-30T09:38:14Z</time>
      </trkpt>
      <trkpt lat="54.248144533485174" lon="15.96528179012239">
        <ele>5.9052734375</ele>
        <time>2015-06-30T09:38:35Z</time>
      </trkpt>
      <trkpt lat="54.248389033600688" lon="15.966495405882597">
        <ele>5.424560546875</ele>
        <time>2015-06-30T09:38:41Z</time>
      </trkpt>
      <trkpt lat="54.249285561963916" lon="15.966746024787426">
        <ele>3.021240234375</ele>
        <time>2015-06-30T09:39:03Z</time>
      </trkpt>
      <trkpt lat="54.249345157295465" lon="15.966741917654872">
        <ele>2.5406494140625</ele>
        <time>2015-06-30T09:39:05Z</time>
      </trkpt>
      <trkpt lat="54.249872714281082" lon="15.97579462453723">
        <ele>3.021240234375</ele>
        <time>2015-06-30T09:42:15Z</time>
      </trkpt>
      <trkpt lat="54.250717526301742" lon="15.978292180225253">
        <ele>3.021240234375</ele>
        <time>2015-06-30T09:42:46Z</time>
      </trkpt>
      <trkpt lat="54.250872926786542" lon="15.978868268430233">
        <ele>3.021240234375</ele>
        <time>2015-06-30T09:42:57Z</time>
      </trkpt>
      <trkpt lat="54.250990357249975" lon="15.980062773451209">
        <ele>1.579345703125</ele>
        <time>2015-06-30T09:43:16Z</time>
      </trkpt>
      <trkpt lat="54.251386234536767" lon="15.981862200424075">
        <ele>1.579345703125</ele>
        <time>2015-06-30T09:43:45Z</time>
      </trkpt>
      <trkpt lat="54.251686474308372" lon="15.985622657462955">
        <ele>0.6180419921875</ele>
        <time>2015-06-30T09:44:49Z</time>
      </trkpt>
      <trkpt lat="54.251790158450603" lon="15.987154534086585">
        <ele>-1.3046875</ele>
        <time>2015-06-30T09:45:21Z</time>
      </trkpt>
      <trkpt lat="54.252415196970105" lon="15.988120464608073">
        <ele>-1.7852783203125</ele>
        <time>2015-06-30T09:45:44Z</time>
      </trkpt>
      <trkpt lat="54.251855872571468" lon="15.999591099098325">
        <ele>-1.3046875</ele>
        <time>2015-06-30T09:49:30Z</time>
      </trkpt>
      <trkpt lat="54.25223657861352" lon="15.99982051178813">
        <ele>-1.7852783203125</ele>
        <time>2015-06-30T09:49:42Z</time>
      </trkpt>
      <trkpt lat="54.253854705020785" lon="16.012495625764132">
        <ele>17.9217529296875</ele>
        <time>2015-06-30T09:55:09Z</time>
      </trkpt>
      <trkpt lat="54.254230381920934" lon="16.018864195793867">
        <ele>18.883056640625</ele>
        <time>2015-06-30T09:56:48Z</time>
      </trkpt>
      <trkpt lat="54.254298442974687" lon="16.019225120544434">
        <ele>18.883056640625</ele>
        <time>2015-06-30T09:56:56Z</time>
      </trkpt>
      <trkpt lat="54.254316883161664" lon="16.020216280594468">
        <ele>16.479736328125</ele>
        <time>2015-06-30T09:57:12Z</time>
      </trkpt>
      <trkpt lat="54.257075367495418" lon="16.039890116080642">
        <ele>12.15380859375</ele>
        <time>2015-06-30T10:02:55Z</time>
      </trkpt>
      <trkpt lat="54.257310144603252" lon="16.042859153822064">
        <ele>12.6343994140625</ele>
        <time>2015-06-30T10:04:00Z</time>
      </trkpt>
      <trkpt lat="54.257168155163527" lon="16.045742863789201">
        <ele>12.6343994140625</ele>
        <time>2015-06-30T10:05:12Z</time>
      </trkpt>
      <trkpt lat="54.256855258718133" lon="16.04680166579783">
        <ele>10.7117919921875</ele>
        <time>2015-06-30T10:05:56Z</time>
      </trkpt>
      <trkpt lat="54.25816023722291" lon="16.051385561004281">
        <ele>6.3858642578125</ele>
        <time>2015-06-30T10:09:03Z</time>
      </trkpt>
      <trkpt lat="54.258169624954462" lon="16.05158681049943">
        <ele>5.424560546875</ele>
        <time>2015-06-30T10:09:16Z</time>
      </trkpt>
      <trkpt lat="54.258093517273664" lon="16.05181748047471">
        <ele>3.501953125</ele>
        <time>2015-06-30T10:09:40Z</time>
      </trkpt>
      <trkpt lat="54.258383028209209" lon="16.053144335746765">
        <ele>2.06005859375</ele>
        <time>2015-06-30T10:10:28Z</time>
      </trkpt>
      <trkpt lat="54.258434660732746" lon="16.05337131768465">
        <ele>2.06005859375</ele>
        <time>2015-06-30T10:10:39Z</time>
      </trkpt>
      <trkpt lat="54.25850079394877" lon="16.053632330149412">
        <ele>0.137451171875</ele>
        <time>2015-06-30T10:11:02Z</time>
      </trkpt>
      <trkpt lat="54.258684776723385" lon="16.054386114701629">
        <ele>1.0986328125</ele>
        <time>2015-06-30T10:11:21Z</time>
      </trkpt>
      <trkpt lat="54.258814863860607" lon="16.054942924529314">
        <ele>1.579345703125</ele>
        <time>2015-06-30T10:11:32Z</time>
      </trkpt>
      <trkpt lat="54.259884646162391" lon="16.054679313674569">
        <ele>1.579345703125</ele>
        <time>2015-06-30T10:12:03Z</time>
      </trkpt>
      <trkpt lat="54.261707123368979" lon="16.053795861080289">
        <ele>1.579345703125</ele>
        <time>2015-06-30T10:13:08Z</time>
      </trkpt>
      <trkpt lat="54.261593716219068" lon="16.053924942389131">
        <ele>3.021240234375</ele>
        <time>2015-06-30T10:14:55Z</time>
      </trkpt>
      <trkpt lat="54.261594219133258" lon="16.053955368697643">
        <ele>3.021240234375</ele>
        <time>2015-06-30T10:14:56Z</time>
      </trkpt>
      <trkpt lat="54.261516015976667" lon="16.054006582126021">
        <ele>7.34716796875</ele>
        <time>2015-06-30T10:22:14Z</time>
      </trkpt>
    </trkseg>
  </trk>

  <trk>
    <name>ACTIVE LOG 005</name>
    <extensions>
      <gpxx:TrackExtension xmlns:gpxx="http://www.garmin.com/xmlschemas/GpxExtensions/v3">
        <gpxx:DisplayColor>Green</gpxx:DisplayColor>
      </gpxx:TrackExtension>
    </extensions>
    <trkseg>
      <trkpt lat="54.261618610471487" lon="16.053906502202153">
        <ele>7.34716796875</ele>
        <time>2015-06-30T10:26:54Z</time>
      </trkpt>
    </trkseg>
  </trk>

  <trk>
    <name>ACTIVE LOG 006</name>
    <extensions>
      <gpxx:TrackExtension xmlns:gpxx="http://www.garmin.com/xmlschemas/GpxExtensions/v3">
        <gpxx:DisplayColor>Green</gpxx:DisplayColor>
      </gpxx:TrackExtension>
    </extensions>
    <trkseg>
      <trkpt lat="54.261635039001703" lon="16.054042791947722">
        <ele>-36.3927001953125</ele>
        <time>2015-06-30T11:10:54Z</time>
      </trkpt>
      <trkpt lat="54.261609809473157" lon="16.054045390337706">
        <ele>-36.3927001953125</ele>
        <time>2015-06-30T11:11:08Z</time>
      </trkpt>
      <trkpt lat="54.261156599968672" lon="16.054213782772422">
        <ele>-20.0504150390625</ele>
        <time>2015-06-30T11:12:09Z</time>
      </trkpt>
      <trkpt lat="54.261121731251478" lon="16.054243538528681">
        <ele>-18.6083984375</ele>
        <time>2015-06-30T11:12:17Z</time>
      </trkpt>
      <trkpt lat="54.258881667628884" lon="16.055214330554008">
        <ele>-16.685791015625</ele>
        <time>2015-06-30T11:13:57Z</time>
      </trkpt>
      <trkpt lat="54.25892936065793" lon="16.055823108181357">
        <ele>-13.321044921875</ele>
        <time>2015-06-30T11:14:09Z</time>
      </trkpt>
      <trkpt lat="54.259047126397491" lon="16.056880066171288">
        <ele>-7.5531005859375</ele>
        <time>2015-06-30T11:14:36Z</time>
      </trkpt>
      <trkpt lat="54.259843910112977" lon="16.061568399891257">
        <ele>0.6180419921875</ele>
        <time>2015-06-30T11:18:37Z</time>
      </trkpt>
      <trkpt lat="54.25991440191865" lon="16.062290752306581">
        <ele>-2.7467041015625</ele>
        <time>2015-06-30T11:19:14Z</time>
      </trkpt>
      <trkpt lat="54.26008639857173" lon="16.064828205853701">
        <ele>-2.7467041015625</ele>
        <time>2015-06-30T11:19:58Z</time>
      </trkpt>
      <trkpt lat="54.261195408180356" lon="16.06844549998641">
        <ele>-6.1112060546875</ele>
        <time>2015-06-30T11:21:08Z</time>
      </trkpt>
      <trkpt lat="54.261241005733609" lon="16.068664519116282">
        <ele>-6.1112060546875</ele>
        <time>2015-06-30T11:21:11Z</time>
      </trkpt>
      <trkpt lat="54.26298008300364" lon="16.07526040636003">
        <ele>-5.14990234375</ele>
        <time>2015-06-30T11:22:51Z</time>
      </trkpt>
      <trkpt lat="54.263181081041694" lon="16.075541032478213">
        <ele>-6.5919189453125</ele>
        <time>2015-06-30T11:22:56Z</time>
      </trkpt>
      <trkpt lat="54.263746021315455" lon="16.075841272249818">
        <ele>-6.1112060546875</ele>
        <time>2015-06-30T11:23:09Z</time>
      </trkpt>
      <trkpt lat="54.263870157301426" lon="16.075726188719273">
        <ele>-6.1112060546875</ele>
        <time>2015-06-30T11:23:13Z</time>
      </trkpt>
      <trkpt lat="54.264372400939465" lon="16.075281193479896">
        <ele>-7.072509765625</ele>
        <time>2015-06-30T11:23:28Z</time>
      </trkpt>
      <trkpt lat="54.264809852465987" lon="16.0751221049577">
        <ele>-6.5919189453125</ele>
        <time>2015-06-30T11:23:46Z</time>
      </trkpt>
      <trkpt lat="54.265630021691322" lon="16.074738297611475">
        <ele>-7.5531005859375</ele>
        <time>2015-06-30T11:24:14Z</time>
      </trkpt>
      <trkpt lat="54.265807801857591" lon="16.074779033660889">
        <ele>-7.072509765625</ele>
        <time>2015-06-30T11:24:22Z</time>
      </trkpt>
      <trkpt lat="54.265873180702329" lon="16.074627656489611">
        <ele>-7.072509765625</ele>
        <time>2015-06-30T11:24:28Z</time>
      </trkpt>
      <trkpt lat="54.266214743256569" lon="16.072825379669666">
        <ele>-7.5531005859375</ele>
        <time>2015-06-30T11:25:33Z</time>
      </trkpt>
      <trkpt lat="54.266370898112655" lon="16.072681127116084">
        <ele>-5.6304931640625</ele>
        <time>2015-06-30T11:25:57Z</time>
      </trkpt>
      <trkpt lat="54.266600226983428" lon="16.072101350873709">
        <ele>-5.14990234375</ele>
        <time>2015-06-30T11:26:18Z</time>
      </trkpt>
      <trkpt lat="54.26705033518374" lon="16.072008060291409">
        <ele>-2.7467041015625</ele>
        <time>2015-06-30T11:29:10Z</time>
      </trkpt>
    </trkseg>
  </trk>

  <trk>
    <name>ACTIVE LOG 007</name>
    <extensions>
      <gpxx:TrackExtension xmlns:gpxx="http://www.garmin.com/xmlschemas/GpxExtensions/v3">
        <gpxx:DisplayColor>Green</gpxx:DisplayColor>
      </gpxx:TrackExtension>
    </extensions>
    <trkseg>
      <trkpt lat="54.267246890813112" lon="16.071823490783572">
        <ele>-40.71875</ele>
        <time>2015-06-30T12:34:30Z</time>
      </trkpt>
      <trkpt lat="54.267110601067543" lon="16.071867328137159">
        <ele>-40.71875</ele>
        <time>2015-06-30T12:34:42Z</time>
      </trkpt>
      <trkpt lat="54.266960062086582" lon="16.07194947078824">
        <ele>-21.4923095703125</ele>
        <time>2015-06-30T12:35:09Z</time>
      </trkpt>
      <trkpt lat="54.266835507005453" lon="16.072014095261693">
        <ele>-15.724365234375</ele>
        <time>2015-06-30T12:35:30Z</time>
      </trkpt>
      <trkpt lat="54.266766356304288" lon="16.07214292511344">
        <ele>-10.437255859375</ele>
        <time>2015-06-30T12:35:52Z</time>
      </trkpt>
      <trkpt lat="54.266582960262895" lon="16.072437968105078">
        <ele>2.5406494140625</ele>
        <time>2015-06-30T12:38:33Z</time>
      </trkpt>
      <trkpt lat="54.266461171209812" lon="16.072999974712729">
        <ele>0.6180419921875</ele>
        <time>2015-06-30T12:38:56Z</time>
      </trkpt>
      <trkpt lat="54.265690119937062" lon="16.073902202770114">
        <ele>0.6180419921875</ele>
        <time>2015-06-30T12:39:27Z</time>
      </trkpt>
      <trkpt lat="54.265825571492314" lon="16.074504777789116">
        <ele>0.137451171875</ele>
        <time>2015-06-30T12:39:46Z</time>
      </trkpt>
      <trkpt lat="54.265823727473617" lon="16.074526319280267">
        <ele>0.137451171875</ele>
        <time>2015-06-30T12:39:47Z</time>
      </trkpt>
      <trkpt lat="54.264739695936441" lon="16.075105173513293">
        <ele>2.5406494140625</ele>
        <time>2015-06-30T12:40:30Z</time>
      </trkpt>
      <trkpt lat="54.264023378491402" lon="16.075478922575712">
        <ele>0.6180419921875</ele>
        <time>2015-06-30T12:40:45Z</time>
      </trkpt>
      <trkpt lat="54.263881975784898" lon="16.075835069641471">
        <ele>0.6180419921875</ele>
        <time>2015-06-30T12:40:53Z</time>
      </trkpt>
      <trkpt lat="54.263909971341491" lon="16.076014023274183">
        <ele>0.6180419921875</ele>
        <time>2015-06-30T12:40:57Z</time>
      </trkpt>
      <trkpt lat="54.265516949817538" lon="16.080613089725375">
        <ele>2.06005859375</ele>
        <time>2015-06-30T12:42:58Z</time>
      </trkpt>
      <trkpt lat="54.268059097230434" lon="16.088590649887919">
        <ele>1.0986328125</ele>
        <time>2015-06-30T12:45:46Z</time>
      </trkpt>
      <trkpt lat="54.269422832876444" lon="16.090691573917866">
        <ele>-2.7467041015625</ele>
        <time>2015-06-30T12:46:33Z</time>
      </trkpt>
      <trkpt lat="54.270672658458352" lon="16.092969942837954">
        <ele>-1.3046875</ele>
        <time>2015-06-30T12:47:21Z</time>
      </trkpt>
      <trkpt lat="54.271839587017894" lon="16.09733322635293">
        <ele>-1.3046875</ele>
        <time>2015-06-30T12:48:40Z</time>
      </trkpt>
      <trkpt lat="54.272994194179773" lon="16.10127498395741">
        <ele>-0.3433837890625</ele>
        <time>2015-06-30T12:49:36Z</time>
      </trkpt>
      <trkpt lat="54.275397788733244" lon="16.109550772234797">
        <ele>-0.8240966796875</ele>
        <time>2015-06-30T12:51:21Z</time>
      </trkpt>
      <trkpt lat="54.275731472298503" lon="16.110984077677131">
        <ele>-1.3046875</ele>
        <time>2015-06-30T12:51:45Z</time>
      </trkpt>
      <trkpt lat="54.275771286338568" lon="16.11110377125442">
        <ele>-0.8240966796875</ele>
        <time>2015-06-30T12:51:47Z</time>
      </trkpt>
      <trkpt lat="54.276534290984273" lon="16.113580875098705">
        <ele>-2.2659912109375</ele>
        <time>2015-06-30T12:52:27Z</time>
      </trkpt>
      <trkpt lat="54.277623603120446" lon="16.117182662710547">
        <ele>-1.7852783203125</ele>
        <time>2015-06-30T12:53:27Z</time>
      </trkpt>
      <trkpt lat="54.279044084250927" lon="16.120785791426897">
        <ele>-4.1885986328125</ele>
        <time>2015-06-30T12:54:28Z</time>
      </trkpt>
      <trkpt lat="54.279879508540034" lon="16.123212855309248">
        <ele>-2.7467041015625</ele>
        <time>2015-06-30T12:55:04Z</time>
      </trkpt>
      <trkpt lat="54.281755713745952" lon="16.128818085417151">
        <ele>-1.3046875</ele>
        <time>2015-06-30T12:56:28Z</time>
      </trkpt>
      <trkpt lat="54.282048661261797" lon="16.130011500790715">
        <ele>-1.7852783203125</ele>
        <time>2015-06-30T12:56:45Z</time>
      </trkpt>
      <trkpt lat="54.282065508887172" lon="16.130431853234768">
        <ele>-2.7467041015625</ele>
        <time>2015-06-30T12:56:57Z</time>
      </trkpt>
      <trkpt lat="54.284143466502428" lon="16.13980483263731">
        <ele>-6.5919189453125</ele>
        <time>2015-06-30T12:59:34Z</time>
      </trkpt>
      <trkpt lat="54.284784765914083" lon="16.141872564330697">
        <ele>-5.6304931640625</ele>
        <time>2015-06-30T13:00:03Z</time>
      </trkpt>
      <trkpt lat="54.287673505023122" lon="16.151532037183642">
        <ele>-6.1112060546875</ele>
        <time>2015-06-30T13:02:08Z</time>
      </trkpt>
      <trkpt lat="54.288188656792045" lon="16.153390053659678">
        <ele>-6.1112060546875</ele>
        <time>2015-06-30T13:02:31Z</time>
      </trkpt>
      <trkpt lat="54.288984518498182" lon="16.155879395082593">
        <ele>-5.6304931640625</ele>
        <time>2015-06-30T13:03:04Z</time>
      </trkpt>
      <trkpt lat="54.291768902912736" lon="16.162732020020485">
        <ele>-4.1885986328125</ele>
        <time>2015-06-30T13:04:45Z</time>
      </trkpt>
      <trkpt lat="54.292316827923059" lon="16.164281331002712">
        <ele>-2.7467041015625</ele>
        <time>2015-06-30T13:05:07Z</time>
      </trkpt>
      <trkpt lat="54.294005194678903" lon="16.168186794966459">
        <ele>-5.6304931640625</ele>
        <time>2015-06-30T13:06:09Z</time>
      </trkpt>
      <trkpt lat="54.29568056948483" lon="16.170665826648474">
        <ele>-4.6693115234375</ele>
        <time>2015-06-30T13:06:51Z</time>
      </trkpt>
      <trkpt lat="54.297289056703448" lon="16.174387307837605">
        <ele>-7.5531005859375</ele>
        <time>2015-06-30T13:07:43Z</time>
      </trkpt>
      <trkpt lat="54.298090869560838" lon="16.176503067836165">
        <ele>-9.475830078125</ele>
        <time>2015-06-30T13:08:13Z</time>
      </trkpt>
      <trkpt lat="54.300059275701642" lon="16.182993510738015">
        <ele>-10.437255859375</ele>
        <time>2015-06-30T13:09:40Z</time>
      </trkpt>
      <trkpt lat="54.300139490514994" lon="16.183107336983085">
        <ele>-9.95654296875</ele>
        <time>2015-06-30T13:09:42Z</time>
      </trkpt>
      <trkpt lat="54.304061131551862" lon="16.189462328329682">
        <ele>-9.475830078125</ele>
        <time>2015-06-30T13:11:39Z</time>
      </trkpt>
      <trkpt lat="54.306975770741701" lon="16.195310382172465">
        <ele>-8.5146484375</ele>
        <time>2015-06-30T13:13:45Z</time>
      </trkpt>
      <trkpt lat="54.307311465963721" lon="16.19602301158011">
        <ele>-8.5146484375</ele>
        <time>2015-06-30T13:13:57Z</time>
      </trkpt>
      <trkpt lat="54.307589326053858" lon="16.196263488382101">
        <ele>-8.5146484375</ele>
        <time>2015-06-30T13:14:04Z</time>
      </trkpt>
      <trkpt lat="54.307746402919292" lon="16.196418637409806">
        <ele>-8.033935546875</ele>
        <time>2015-06-30T13:14:08Z</time>
      </trkpt>
      <trkpt lat="54.307917561382055" lon="16.196692977100611">
        <ele>-8.033935546875</ele>
        <time>2015-06-30T13:14:13Z</time>
      </trkpt>
      <trkpt lat="54.308076985180378" lon="16.197079801931977">
        <ele>-7.072509765625</ele>
        <time>2015-06-30T13:14:19Z</time>
      </trkpt>
      <trkpt lat="54.308701436966658" lon="16.198863303288817">
        <ele>-5.6304931640625</ele>
        <time>2015-06-30T13:14:47Z</time>
      </trkpt>
      <trkpt lat="54.309121370315552" lon="16.199594791978598">
        <ele>-5.6304931640625</ele>
        <time>2015-06-30T13:15:03Z</time>
      </trkpt>
      <trkpt lat="54.3096524477005" lon="16.199809620156884">
        <ele>-5.6304931640625</ele>
        <time>2015-06-30T13:15:21Z</time>
      </trkpt>
      <trkpt lat="54.313751198351383" lon="16.204967424273491">
        <ele>-3.7078857421875</ele>
        <time>2015-06-30T13:17:50Z</time>
      </trkpt>
      <trkpt lat="54.313720185309649" lon="16.204981505870819">
        <ele>-3.227294921875</ele>
        <time>2015-06-30T13:17:54Z</time>
      </trkpt>
      <trkpt lat="54.313560342416167" lon="16.204867092892528">
        <ele>4.4632568359375</ele>
        <time>2015-06-30T13:19:37Z</time>
      </trkpt>
      <trkpt lat="54.3135223723948" lon="16.204711692407727">
        <ele>2.06005859375</ele>
        <time>2015-06-30T13:25:32Z</time>
      </trkpt>
      <trkpt lat="54.313509967178106" lon="16.204740442335606">
        <ele>3.021240234375</ele>
        <time>2015-06-30T13:34:46Z</time>
      </trkpt>
      <trkpt lat="54.313576519489288" lon="16.204841863363981">
        <ele>3.021240234375</ele>
        <time>2015-06-30T13:36:08Z</time>
      </trkpt>
      <trkpt lat="54.314523590728641" lon="16.206311043351889">
        <ele>2.06005859375</ele>
        <time>2015-06-30T13:36:46Z</time>
      </trkpt>
      <trkpt lat="54.315353482961655" lon="16.207725824788213">
        <ele>-1.7852783203125</ele>
        <time>2015-06-30T13:37:15Z</time>
      </trkpt>
      <trkpt lat="54.315477199852467" lon="16.208410123363137">
        <ele>-3.227294921875</ele>
        <time>2015-06-30T13:37:31Z</time>
      </trkpt>
      <trkpt lat="54.315550625324249" lon="16.208511628210545">
        <ele>-3.7078857421875</ele>
        <time>2015-06-30T13:37:56Z</time>
      </trkpt>
      <trkpt lat="54.315822701901197" lon="16.209074389189482">
        <ele>-2.7467041015625</ele>
        <time>2015-06-30T13:38:19Z</time>
      </trkpt>
      <trkpt lat="54.31611062027514" lon="16.209675539284945">
        <ele>-1.3046875</ele>
        <time>2015-06-30T13:38:37Z</time>
      </trkpt>
      <trkpt lat="54.31661588139832" lon="16.210895273834467">
        <ele>0.6180419921875</ele>
        <time>2015-06-30T13:39:19Z</time>
      </trkpt>
      <trkpt lat="54.317047633230686" lon="16.211618799716234">
        <ele>2.5406494140625</ele>
        <time>2015-06-30T13:39:56Z</time>
      </trkpt>
      <trkpt lat="54.317444683983922" lon="16.212332351133227">
        <ele>7.827880859375</ele>
        <time>2015-06-30T13:46:11Z</time>
      </trkpt>
      <trkpt lat="54.317414341494441" lon="16.212361436337233">
        <ele>6.3858642578125</ele>
        <time>2015-06-30T13:46:25Z</time>
      </trkpt>
      <trkpt lat="54.317404199391603" lon="16.212390521541238">
        <ele>6.3858642578125</ele>
        <time>2015-06-30T13:46:27Z</time>
      </trkpt>
      <trkpt lat="54.317092224955559" lon="16.212718673050404">
        <ele>6.3858642578125</ele>
        <time>2015-06-30T13:46:43Z</time>
      </trkpt>
      <trkpt lat="54.316696180030704" lon="16.212707692757249">
        <ele>5.9052734375</ele>
        <time>2015-06-30T13:47:07Z</time>
      </trkpt>
      <trkpt lat="54.316691905260086" lon="16.212682714685798">
        <ele>5.9052734375</ele>
        <time>2015-06-30T13:47:08Z</time>
      </trkpt>
      <trkpt lat="54.316569529473782" lon="16.211637491360307">
        <ele>6.866455078125</ele>
        <time>2015-06-30T13:47:32Z</time>
      </trkpt>
      <trkpt lat="54.315797053277493" lon="16.209145719185472">
        <ele>3.982666015625</ele>
        <time>2015-06-30T13:48:45Z</time>
      </trkpt>
      <trkpt lat="54.3154910299927" lon="16.208416074514389">
        <ele>3.501953125</ele>
        <time>2015-06-30T13:49:06Z</time>
      </trkpt>
      <trkpt lat="54.31515977717936" lon="16.207280158996582">
        <ele>1.0986328125</ele>
        <time>2015-06-30T13:49:38Z</time>
      </trkpt>
      <trkpt lat="54.314894489943981" lon="16.206780765205622">
        <ele>-2.2659912109375</ele>
        <time>2015-06-30T13:49:52Z</time>
      </trkpt>
      <trkpt lat="54.314013132825494" lon="16.205414431169629">
        <ele>-5.6304931640625</ele>
        <time>2015-06-30T13:50:26Z</time>
      </trkpt>
      <trkpt lat="54.313761675730348" lon="16.205065324902534">
        <ele>-3.227294921875</ele>
        <time>2015-06-30T13:50:41Z</time>
      </trkpt>
      <trkpt lat="54.312948128208518" lon="16.20394173078239">
        <ele>-2.7467041015625</ele>
        <time>2015-06-30T13:51:30Z</time>
      </trkpt>
      <trkpt lat="54.311379957944155" lon="16.201989836990833">
        <ele>-3.227294921875</ele>
        <time>2015-06-30T13:52:22Z</time>
      </trkpt>
      <trkpt lat="54.310220908373594" lon="16.200262494385242">
        <ele>-1.3046875</ele>
        <time>2015-06-30T13:53:04Z</time>
      </trkpt>
      <trkpt lat="54.309670887887478" lon="16.199586661532521">
        <ele>-0.8240966796875</ele>
        <time>2015-06-30T13:53:27Z</time>
      </trkpt>
      <trkpt lat="54.309041574597359" lon="16.199626140296459">
        <ele>-2.7467041015625</ele>
        <time>2015-06-30T13:53:45Z</time>
      </trkpt>
      <trkpt lat="54.308452326804399" lon="16.198450326919556">
        <ele>0.137451171875</ele>
        <time>2015-06-30T13:54:18Z</time>
      </trkpt>
      <trkpt lat="54.308201288804412" lon="16.19770098477602">
        <ele>2.5406494140625</ele>
        <time>2015-06-30T13:54:39Z</time>
      </trkpt>
      <trkpt lat="54.308124594390392" lon="16.197403343394399">
        <ele>2.06005859375</ele>
        <time>2015-06-30T13:54:51Z</time>
      </trkpt>
      <trkpt lat="54.308112105354667" lon="16.197376186028123">
        <ele>0.6180419921875</ele>
        <time>2015-06-30T13:55:44Z</time>
      </trkpt>
      <trkpt lat="54.308129036799073" lon="16.19734869338572">
        <ele>2.5406494140625</ele>
        <time>2015-06-30T13:56:09Z</time>
      </trkpt>
      <trkpt lat="54.308171030133963" lon="16.197300748899579">
        <ele>3.021240234375</ele>
        <time>2015-06-30T13:56:27Z</time>
      </trkpt>
      <trkpt lat="54.308198606595397" lon="16.197297647595406">
        <ele>-0.3433837890625</ele>
        <time>2015-06-30T13:57:05Z</time>
      </trkpt>
      <trkpt lat="54.308220986276865" lon="16.197281805798411">
        <ele>-0.3433837890625</ele>
        <time>2015-06-30T13:57:33Z</time>
      </trkpt>
      <trkpt lat="54.308276977390051" lon="16.197238387539983">
        <ele>-1.7852783203125</ele>
        <time>2015-06-30T13:58:01Z</time>
      </trkpt>
      <trkpt lat="54.308303380385041" lon="16.197243249043822">
        <ele>-1.7852783203125</ele>
        <time>2015-06-30T13:58:15Z</time>
      </trkpt>
      <trkpt lat="54.308342188596725" lon="16.197203854098916">
        <ele>-2.2659912109375</ele>
        <time>2015-06-30T13:58:22Z</time>
      </trkpt>
      <trkpt lat="54.308615438640118" lon="16.196914175525308">
        <ele>-2.7467041015625</ele>
        <time>2015-06-30T13:58:51Z</time>
      </trkpt>
      <trkpt lat="54.308801265433431" lon="16.196673111990094">
        <ele>-1.7852783203125</ele>
        <time>2015-06-30T13:59:16Z</time>
      </trkpt>
      <trkpt lat="54.30890335701406" lon="16.196687528863549">
        <ele>0.6180419921875</ele>
        <time>2015-06-30T13:59:39Z</time>
      </trkpt>
      <trkpt lat="54.308923222124577" lon="16.196685349568725">
        <ele>1.579345703125</ele>
        <time>2015-06-30T14:00:18Z</time>
      </trkpt>
      <trkpt lat="54.308896232396364" lon="16.196525171399117">
        <ele>2.5406494140625</ele>
        <time>2015-06-30T14:00:38Z</time>
      </trkpt>
      <trkpt lat="54.308885671198368" lon="16.196440597996116">
        <ele>3.021240234375</ele>
        <time>2015-06-30T14:01:03Z</time>
      </trkpt>
    </trkseg>
  </trk>

</gpx>
